sensor_id;sensor_type;location;lat;lon;timestamp;P1;durP1;ratioP1;P2;durP2;ratioP2
65853;SDS011;52627;48.838;2.402;2023-05-07T00:00:36;5.60;;;2.00;;
65853;SDS011;52627;48.838;2.402;2023-05-07T00:03:04;7.70;;;1.80;;
65853;SDS011;52627;48.838;2.402;2023-05-07T00:05:33;8.50;;;1.90;;
65853;SDS011;52627;48.838;2.402;2023-05-07T00:08:00;6.00;;;2.00;;
65853;SDS011;52627;48.838;2.402;2023-05-07T00:10:28;7.60;;;2.60;;
65853;SDS011;52627;48.838;2.402;2023-05-07T00:12:55;5.50;;;2.10;;
65853;SDS011;52627;48.838;2.402;2023-05-07T00:15:23;4.50;;;2.00;;
65853;SDS011;52627;48.838;2.402;2023-05-07T00:17:50;6.30;;;2.20;;
65853;SDS011;52627;48.838;2.402;2023-05-07T00:20:18;5.50;;;1.80;;
65853;SDS011;52627;48.838;2.402;2023-05-07T00:22:45;7.10;;;1.70;;
65853;SDS011;52627;48.838;2.402;2023-05-07T00:25:13;5.80;;;1.80;;
65853;SDS011;52627;48.838;2.402;2023-05-07T00:27:40;6.30;;;2.00;;
65853;SDS011;52627;48.838;2.402;2023-05-07T00:30:08;5.70;;;1.80;;
65853;SDS011;52627;48.838;2.402;2023-05-07T00:32:37;6.20;;;1.80;;
65853;SDS011;52627;48.838;2.402;2023-05-07T00:35:06;6.50;;;2.10;;
65853;SDS011;52627;48.838;2.402;2023-05-07T00:37:34;4.00;;;1.60;;
65853;SDS011;52627;48.838;2.402;2023-05-07T00:40:02;4.30;;;1.50;;
65853;SDS011;52627;48.838;2.402;2023-05-07T00:42:34;4.30;;;1.80;;
65853;SDS011;52627;48.838;2.402;2023-05-07T00:45:02;4.60;;;1.80;;
65853;SDS011;52627;48.838;2.402;2023-05-07T00:47:30;6.40;;;2.50;;
65853;SDS011;52627;48.838;2.402;2023-05-07T00:49:58;5.60;;;1.80;;
65853;SDS011;52627;48.838;2.402;2023-05-07T00:52:27;3.60;;;1.60;;
65853;SDS011;52627;48.838;2.402;2023-05-07T00:54:55;4.20;;;2.10;;
65853;SDS011;52627;48.838;2.402;2023-05-07T00:57:24;6.90;;;2.50;;
65853;SDS011;52627;48.838;2.402;2023-05-07T00:59:52;4.90;;;2.00;;
65853;SDS011;52627;48.838;2.402;2023-05-07T01:02:20;9.30;;;2.90;;
65853;SDS011;52627;48.838;2.402;2023-05-07T01:04:47;5.30;;;1.90;;
65853;SDS011;52627;48.838;2.402;2023-05-07T01:07:15;5.20;;;2.00;;
65853;SDS011;52627;48.838;2.402;2023-05-07T01:09:42;4.50;;;2.00;;
65853;SDS011;52627;48.838;2.402;2023-05-07T01:12:10;9.70;;;2.10;;
65853;SDS011;52627;48.838;2.402;2023-05-07T01:14:37;5.70;;;1.90;;
65853;SDS011;52627;48.838;2.402;2023-05-07T01:17:05;6.50;;;2.30;;
65853;SDS011;52627;48.838;2.402;2023-05-07T01:19:34;5.80;;;2.10;;
65853;SDS011;52627;48.838;2.402;2023-05-07T01:22:04;6.30;;;2.00;;
65853;SDS011;52627;48.838;2.402;2023-05-07T01:24:38;10.00;;;2.80;;
65853;SDS011;52627;48.838;2.402;2023-05-07T01:27:05;6.00;;;2.30;;
65853;SDS011;52627;48.838;2.402;2023-05-07T01:29:33;6.20;;;2.50;;
65853;SDS011;52627;48.838;2.402;2023-05-07T01:32:02;4.70;;;2.10;;
65853;SDS011;52627;48.838;2.402;2023-05-07T01:34:32;5.40;;;2.60;;
65853;SDS011;52627;48.838;2.402;2023-05-07T01:37:00;5.20;;;2.40;;
65853;SDS011;52627;48.838;2.402;2023-05-07T01:39:29;21.60;;;3.50;;
65853;SDS011;52627;48.838;2.402;2023-05-07T01:41:58;7.60;;;2.90;;
65853;SDS011;52627;48.838;2.402;2023-05-07T01:44:27;7.20;;;2.80;;
65853;SDS011;52627;48.838;2.402;2023-05-07T01:46:56;6.00;;;3.10;;
65853;SDS011;52627;48.838;2.402;2023-05-07T01:49:25;6.60;;;3.10;;
65853;SDS011;52627;48.838;2.402;2023-05-07T01:51:52;7.20;;;2.80;;
65853;SDS011;52627;48.838;2.402;2023-05-07T01:54:25;6.10;;;3.30;;
65853;SDS011;52627;48.838;2.402;2023-05-07T01:56:56;6.90;;;2.80;;
65853;SDS011;52627;48.838;2.402;2023-05-07T01:59:24;6.10;;;3.30;;
65853;SDS011;52627;48.838;2.402;2023-05-07T02:01:52;8.80;;;3.40;;
65853;SDS011;52627;48.838;2.402;2023-05-07T02:04:20;10.40;;;4.70;;
65853;SDS011;52627;48.838;2.402;2023-05-07T02:06:47;9.90;;;4.60;;
65853;SDS011;52627;48.838;2.402;2023-05-07T02:09:15;8.20;;;3.60;;
65853;SDS011;52627;48.838;2.402;2023-05-07T02:11:44;9.10;;;3.50;;
65853;SDS011;52627;48.838;2.402;2023-05-07T02:14:12;10.10;;;4.80;;
65853;SDS011;52627;48.838;2.402;2023-05-07T02:16:39;8.50;;;4.30;;
65853;SDS011;52627;48.838;2.402;2023-05-07T02:19:07;9.30;;;4.60;;
65853;SDS011;52627;48.838;2.402;2023-05-07T02:21:34;14.00;;;4.70;;
65853;SDS011;52627;48.838;2.402;2023-05-07T02:24:01;11.70;;;4.30;;
65853;SDS011;52627;48.838;2.402;2023-05-07T02:26:29;10.00;;;4.20;;
65853;SDS011;52627;48.838;2.402;2023-05-07T02:28:56;9.80;;;4.50;;
65853;SDS011;52627;48.838;2.402;2023-05-07T02:31:24;11.00;;;5.30;;
65853;SDS011;52627;48.838;2.402;2023-05-07T02:33:51;9.70;;;5.30;;
65853;SDS011;52627;48.838;2.402;2023-05-07T02:36:18;8.70;;;4.30;;
65853;SDS011;52627;48.838;2.402;2023-05-07T02:38:46;9.30;;;4.40;;
65853;SDS011;52627;48.838;2.402;2023-05-07T02:41:13;11.30;;;4.00;;
65853;SDS011;52627;48.838;2.402;2023-05-07T02:43:41;9.20;;;4.60;;
65853;SDS011;52627;48.838;2.402;2023-05-07T02:46:08;12.00;;;4.50;;
65853;SDS011;52627;48.838;2.402;2023-05-07T02:48:36;7.90;;;4.00;;
65853;SDS011;52627;48.838;2.402;2023-05-07T02:51:04;18.50;;;4.30;;
65853;SDS011;52627;48.838;2.402;2023-05-07T02:53:32;14.70;;;4.20;;
65853;SDS011;52627;48.838;2.402;2023-05-07T02:56:00;9.20;;;4.40;;
65853;SDS011;52627;48.838;2.402;2023-05-07T02:58:29;11.10;;;4.60;;
65853;SDS011;52627;48.838;2.402;2023-05-07T03:00:56;8.60;;;3.80;;
65853;SDS011;52627;48.838;2.402;2023-05-07T03:03:24;11.30;;;4.30;;
65853;SDS011;52627;48.838;2.402;2023-05-07T03:05:52;7.60;;;3.20;;
65853;SDS011;52627;48.838;2.402;2023-05-07T03:08:19;8.00;;;3.60;;
65853;SDS011;52627;48.838;2.402;2023-05-07T03:10:47;7.40;;;2.80;;
65853;SDS011;52627;48.838;2.402;2023-05-07T03:13:14;11.90;;;2.70;;
65853;SDS011;52627;48.838;2.402;2023-05-07T03:15:42;5.00;;;2.20;;
65853;SDS011;52627;48.838;2.402;2023-05-07T03:18:10;5.80;;;2.80;;
65853;SDS011;52627;48.838;2.402;2023-05-07T03:20:37;4.10;;;2.10;;
65853;SDS011;52627;48.838;2.402;2023-05-07T03:23:05;6.20;;;2.60;;
65853;SDS011;52627;48.838;2.402;2023-05-07T03:25:32;9.30;;;2.50;;
65853;SDS011;52627;48.838;2.402;2023-05-07T03:28:00;7.50;;;2.30;;
65853;SDS011;52627;48.838;2.402;2023-05-07T03:30:28;5.20;;;2.40;;
65853;SDS011;52627;48.838;2.402;2023-05-07T03:32:55;13.80;;;2.50;;
65853;SDS011;52627;48.838;2.402;2023-05-07T03:35:23;8.30;;;2.50;;
65853;SDS011;52627;48.838;2.402;2023-05-07T03:37:51;7.10;;;2.10;;
65853;SDS011;52627;48.838;2.402;2023-05-07T03:40:19;5.60;;;2.40;;
65853;SDS011;52627;48.838;2.402;2023-05-07T03:42:46;7.30;;;2.40;;
65853;SDS011;52627;48.838;2.402;2023-05-07T03:45:14;4.70;;;2.00;;
65853;SDS011;52627;48.838;2.402;2023-05-07T03:47:41;6.20;;;2.60;;
65853;SDS011;52627;48.838;2.402;2023-05-07T03:50:09;7.00;;;2.00;;
65853;SDS011;52627;48.838;2.402;2023-05-07T03:52:38;5.80;;;2.00;;
65853;SDS011;52627;48.838;2.402;2023-05-07T03:55:05;6.20;;;2.60;;
65853;SDS011;52627;48.838;2.402;2023-05-07T03:57:34;5.00;;;2.00;;
65853;SDS011;52627;48.838;2.402;2023-05-07T04:00:02;5.80;;;2.30;;
65853;SDS011;52627;48.838;2.402;2023-05-07T04:02:32;4.50;;;2.10;;
65853;SDS011;52627;48.838;2.402;2023-05-07T04:05:00;4.80;;;2.00;;
65853;SDS011;52627;48.838;2.402;2023-05-07T04:07:28;4.50;;;1.90;;
65853;SDS011;52627;48.838;2.402;2023-05-07T04:09:55;5.80;;;1.90;;
65853;SDS011;52627;48.838;2.402;2023-05-07T04:12:23;5.60;;;2.20;;
65853;SDS011;52627;48.838;2.402;2023-05-07T04:14:50;3.80;;;1.60;;
65853;SDS011;52627;48.838;2.402;2023-05-07T04:17:18;4.00;;;1.90;;
65853;SDS011;52627;48.838;2.402;2023-05-07T04:19:45;4.80;;;1.80;;
65853;SDS011;52627;48.838;2.402;2023-05-07T04:22:13;3.60;;;2.00;;
65853;SDS011;52627;48.838;2.402;2023-05-07T04:24:41;4.70;;;1.70;;
65853;SDS011;52627;48.838;2.402;2023-05-07T04:27:08;4.00;;;1.80;;
65853;SDS011;52627;48.838;2.402;2023-05-07T04:29:36;5.40;;;1.70;;
65853;SDS011;52627;48.838;2.402;2023-05-07T04:32:04;5.40;;;1.80;;
65853;SDS011;52627;48.838;2.402;2023-05-07T04:34:32;4.80;;;2.10;;
65853;SDS011;52627;48.838;2.402;2023-05-07T04:36:59;5.90;;;3.30;;
65853;SDS011;52627;48.838;2.402;2023-05-07T04:39:27;7.70;;;2.90;;
65853;SDS011;52627;48.838;2.402;2023-05-07T04:41:55;7.20;;;3.30;;
65853;SDS011;52627;48.838;2.402;2023-05-07T04:44:22;7.50;;;3.80;;
65853;SDS011;52627;48.838;2.402;2023-05-07T04:46:50;9.60;;;3.90;;
65853;SDS011;52627;48.838;2.402;2023-05-07T04:49:17;8.60;;;3.70;;
65853;SDS011;52627;48.838;2.402;2023-05-07T04:51:45;7.20;;;3.50;;
65853;SDS011;52627;48.838;2.402;2023-05-07T04:54:12;9.50;;;3.90;;
65853;SDS011;52627;48.838;2.402;2023-05-07T04:56:39;6.90;;;3.40;;
65853;SDS011;52627;48.838;2.402;2023-05-07T04:59:07;6.50;;;3.30;;
65853;SDS011;52627;48.838;2.402;2023-05-07T05:01:35;8.20;;;3.30;;
65853;SDS011;52627;48.838;2.402;2023-05-07T05:04:02;6.60;;;2.60;;
65853;SDS011;52627;48.838;2.402;2023-05-07T05:06:31;6.20;;;2.90;;
65853;SDS011;52627;48.838;2.402;2023-05-07T05:08:58;6.50;;;3.20;;
65853;SDS011;52627;48.838;2.402;2023-05-07T05:11:25;5.90;;;2.70;;
65853;SDS011;52627;48.838;2.402;2023-05-07T05:13:53;6.20;;;2.80;;
65853;SDS011;52627;48.838;2.402;2023-05-07T05:16:20;5.60;;;2.70;;
65853;SDS011;52627;48.838;2.402;2023-05-07T05:18:48;8.20;;;2.60;;
65853;SDS011;52627;48.838;2.402;2023-05-07T05:21:16;4.50;;;2.40;;
65853;SDS011;52627;48.838;2.402;2023-05-07T05:23:43;6.70;;;2.80;;
65853;SDS011;52627;48.838;2.402;2023-05-07T05:26:10;5.20;;;2.80;;
65853;SDS011;52627;48.838;2.402;2023-05-07T05:28:38;6.60;;;2.60;;
65853;SDS011;52627;48.838;2.402;2023-05-07T05:31:05;5.50;;;2.40;;
65853;SDS011;52627;48.838;2.402;2023-05-07T05:33:33;5.70;;;2.70;;
65853;SDS011;52627;48.838;2.402;2023-05-07T05:36:01;8.40;;;2.50;;
65853;SDS011;52627;48.838;2.402;2023-05-07T05:38:29;6.20;;;2.50;;
65853;SDS011;52627;48.838;2.402;2023-05-07T05:40:56;5.90;;;2.60;;
65853;SDS011;52627;48.838;2.402;2023-05-07T05:43:23;6.60;;;2.80;;
65853;SDS011;52627;48.838;2.402;2023-05-07T05:45:51;6.60;;;3.10;;
65853;SDS011;52627;48.838;2.402;2023-05-07T05:48:19;6.30;;;3.10;;
65853;SDS011;52627;48.838;2.402;2023-05-07T05:50:46;6.60;;;2.80;;
65853;SDS011;52627;48.838;2.402;2023-05-07T05:53:14;7.80;;;2.80;;
65853;SDS011;52627;48.838;2.402;2023-05-07T05:55:42;5.70;;;2.60;;
65853;SDS011;52627;48.838;2.402;2023-05-07T05:58:11;8.30;;;2.90;;
65853;SDS011;52627;48.838;2.402;2023-05-07T06:00:38;7.10;;;3.00;;
65853;SDS011;52627;48.838;2.402;2023-05-07T06:03:06;7.00;;;3.00;;
65853;SDS011;52627;48.838;2.402;2023-05-07T06:05:33;7.50;;;2.80;;
65853;SDS011;52627;48.838;2.402;2023-05-07T06:08:01;7.60;;;3.40;;
65853;SDS011;52627;48.838;2.402;2023-05-07T06:10:28;6.60;;;2.70;;
65853;SDS011;52627;48.838;2.402;2023-05-07T06:12:57;7.30;;;3.00;;
65853;SDS011;52627;48.838;2.402;2023-05-07T06:15:25;6.50;;;2.90;;
65853;SDS011;52627;48.838;2.402;2023-05-07T06:17:52;8.90;;;3.40;;
65853;SDS011;52627;48.838;2.402;2023-05-07T06:20:19;11.40;;;3.40;;
65853;SDS011;52627;48.838;2.402;2023-05-07T06:22:47;6.90;;;3.10;;
65853;SDS011;52627;48.838;2.402;2023-05-07T06:25:14;6.90;;;3.20;;
65853;SDS011;52627;48.838;2.402;2023-05-07T06:27:42;7.50;;;3.60;;
65853;SDS011;52627;48.838;2.402;2023-05-07T06:30:10;5.60;;;2.70;;
65853;SDS011;52627;48.838;2.402;2023-05-07T06:32:40;7.40;;;3.10;;
65853;SDS011;52627;48.838;2.402;2023-05-07T06:35:08;5.80;;;3.00;;
65853;SDS011;52627;48.838;2.402;2023-05-07T06:37:36;7.20;;;3.20;;
65853;SDS011;52627;48.838;2.402;2023-05-07T06:40:06;5.70;;;2.60;;
65853;SDS011;52627;48.838;2.402;2023-05-07T06:42:36;5.60;;;2.70;;
65853;SDS011;52627;48.838;2.402;2023-05-07T06:45:04;6.70;;;2.70;;
65853;SDS011;52627;48.838;2.402;2023-05-07T06:47:32;5.40;;;2.50;;
65853;SDS011;52627;48.838;2.402;2023-05-07T06:50:00;4.70;;;2.40;;
65853;SDS011;52627;48.838;2.402;2023-05-07T06:52:27;5.70;;;2.60;;
65853;SDS011;52627;48.838;2.402;2023-05-07T06:54:55;5.10;;;2.60;;
65853;SDS011;52627;48.838;2.402;2023-05-07T06:57:22;6.10;;;3.00;;
65853;SDS011;52627;48.838;2.402;2023-05-07T06:59:50;5.50;;;2.60;;
65853;SDS011;52627;48.838;2.402;2023-05-07T07:02:18;5.20;;;2.70;;
65853;SDS011;52627;48.838;2.402;2023-05-07T07:04:45;5.00;;;2.40;;
65853;SDS011;52627;48.838;2.402;2023-05-07T07:07:13;6.00;;;3.10;;
65853;SDS011;52627;48.838;2.402;2023-05-07T07:09:40;6.10;;;2.90;;
65853;SDS011;52627;48.838;2.402;2023-05-07T07:12:08;4.30;;;2.60;;
65853;SDS011;52627;48.838;2.402;2023-05-07T07:14:35;6.30;;;3.00;;
65853;SDS011;52627;48.838;2.402;2023-05-07T07:17:03;5.80;;;2.70;;
65853;SDS011;52627;48.838;2.402;2023-05-07T07:19:32;11.80;;;2.90;;
65853;SDS011;52627;48.838;2.402;2023-05-07T07:21:59;5.10;;;2.50;;
65853;SDS011;52627;48.838;2.402;2023-05-07T07:24:27;4.80;;;2.60;;
65853;SDS011;52627;48.838;2.402;2023-05-07T07:26:54;6.70;;;2.60;;
65853;SDS011;52627;48.838;2.402;2023-05-07T07:29:22;6.40;;;2.40;;
65853;SDS011;52627;48.838;2.402;2023-05-07T07:31:50;5.50;;;2.90;;
65853;SDS011;52627;48.838;2.402;2023-05-07T07:34:17;6.50;;;2.40;;
65853;SDS011;52627;48.838;2.402;2023-05-07T07:36:45;6.70;;;2.70;;
65853;SDS011;52627;48.838;2.402;2023-05-07T07:39:13;5.80;;;2.90;;
65853;SDS011;52627;48.838;2.402;2023-05-07T07:41:40;6.50;;;2.90;;
65853;SDS011;52627;48.838;2.402;2023-05-07T07:44:08;5.50;;;2.60;;
65853;SDS011;52627;48.838;2.402;2023-05-07T07:46:36;7.40;;;2.90;;
65853;SDS011;52627;48.838;2.402;2023-05-07T07:49:04;7.70;;;2.70;;
65853;SDS011;52627;48.838;2.402;2023-05-07T07:51:31;5.80;;;2.90;;
65853;SDS011;52627;48.838;2.402;2023-05-07T07:53:59;6.40;;;2.60;;
65853;SDS011;52627;48.838;2.402;2023-05-07T07:56:28;6.80;;;2.80;;
65853;SDS011;52627;48.838;2.402;2023-05-07T07:58:55;4.90;;;2.70;;
65853;SDS011;52627;48.838;2.402;2023-05-07T08:01:22;6.60;;;2.70;;
65853;SDS011;52627;48.838;2.402;2023-05-07T08:03:50;6.60;;;3.00;;
65853;SDS011;52627;48.838;2.402;2023-05-07T08:06:18;6.00;;;2.80;;
65853;SDS011;52627;48.838;2.402;2023-05-07T08:08:46;4.40;;;2.20;;
65853;SDS011;52627;48.838;2.402;2023-05-07T08:11:13;5.90;;;2.60;;
65853;SDS011;52627;48.838;2.402;2023-05-07T08:13:41;4.60;;;2.40;;
65853;SDS011;52627;48.838;2.402;2023-05-07T08:16:09;5.90;;;2.60;;
65853;SDS011;52627;48.838;2.402;2023-05-07T08:18:36;6.20;;;3.60;;
65853;SDS011;52627;48.838;2.402;2023-05-07T08:21:04;5.50;;;3.30;;
65853;SDS011;52627;48.838;2.402;2023-05-07T08:23:32;6.40;;;3.10;;
65853;SDS011;52627;48.838;2.402;2023-05-07T08:26:01;5.30;;;2.90;;
65853;SDS011;52627;48.838;2.402;2023-05-07T08:28:29;5.10;;;2.70;;
65853;SDS011;52627;48.838;2.402;2023-05-07T08:30:56;5.60;;;2.70;;
65853;SDS011;52627;48.838;2.402;2023-05-07T08:33:23;4.60;;;2.50;;
65853;SDS011;52627;48.838;2.402;2023-05-07T08:35:51;4.50;;;2.60;;
65853;SDS011;52627;48.838;2.402;2023-05-07T08:38:19;5.70;;;2.90;;
65853;SDS011;52627;48.838;2.402;2023-05-07T08:40:47;3.70;;;2.30;;
65853;SDS011;52627;48.838;2.402;2023-05-07T08:43:15;4.60;;;2.50;;
65853;SDS011;52627;48.838;2.402;2023-05-07T08:45:48;4.50;;;2.00;;
65853;SDS011;52627;48.838;2.402;2023-05-07T08:48:16;3.70;;;1.80;;
65853;SDS011;52627;48.838;2.402;2023-05-07T08:50:45;4.20;;;1.90;;
65853;SDS011;52627;48.838;2.402;2023-05-07T08:53:13;3.20;;;1.70;;
65853;SDS011;52627;48.838;2.402;2023-05-07T08:55:42;4.70;;;1.70;;
65853;SDS011;52627;48.838;2.402;2023-05-07T08:58:09;3.60;;;1.60;;
65853;SDS011;52627;48.838;2.402;2023-05-07T09:00:39;3.60;;;1.80;;
65853;SDS011;52627;48.838;2.402;2023-05-07T09:03:07;3.40;;;1.70;;
65853;SDS011;52627;48.838;2.402;2023-05-07T09:05:36;4.10;;;1.90;;
65853;SDS011;52627;48.838;2.402;2023-05-07T09:08:06;4.50;;;1.90;;
65853;SDS011;52627;48.838;2.402;2023-05-07T09:13:03;4.20;;;2.30;;
65853;SDS011;52627;48.838;2.402;2023-05-07T09:15:31;4.50;;;2.30;;
65853;SDS011;52627;48.838;2.402;2023-05-07T09:18:00;5.50;;;2.40;;
65853;SDS011;52627;48.838;2.402;2023-05-07T09:20:30;6.00;;;2.70;;
65853;SDS011;52627;48.838;2.402;2023-05-07T09:23:06;4.10;;;2.00;;
65853;SDS011;52627;48.838;2.402;2023-05-07T09:25:35;3.90;;;2.30;;
65853;SDS011;52627;48.838;2.402;2023-05-07T09:28:04;5.50;;;2.50;;
65853;SDS011;52627;48.838;2.402;2023-05-07T09:30:37;3.90;;;1.70;;
65853;SDS011;52627;48.838;2.402;2023-05-07T09:33:04;3.20;;;1.90;;
65853;SDS011;52627;48.838;2.402;2023-05-07T09:35:32;4.10;;;1.90;;
65853;SDS011;52627;48.838;2.402;2023-05-07T09:38:00;3.70;;;1.90;;
65853;SDS011;52627;48.838;2.402;2023-05-07T09:40:30;3.50;;;2.10;;
65853;SDS011;52627;48.838;2.402;2023-05-07T09:43:13;4.90;;;2.20;;
65853;SDS011;52627;48.838;2.402;2023-05-07T09:45:41;4.40;;;2.80;;
65853;SDS011;52627;48.838;2.402;2023-05-07T09:48:09;5.20;;;2.50;;
65853;SDS011;52627;48.838;2.402;2023-05-07T09:50:48;4.90;;;2.50;;
65853;SDS011;52627;48.838;2.402;2023-05-07T09:53:17;4.80;;;2.70;;
65853;SDS011;52627;48.838;2.402;2023-05-07T09:55:45;6.50;;;2.80;;
65853;SDS011;52627;48.838;2.402;2023-05-07T09:58:14;4.30;;;2.50;;
65853;SDS011;52627;48.838;2.402;2023-05-07T10:00:43;4.30;;;2.60;;
65853;SDS011;52627;48.838;2.402;2023-05-07T10:03:11;4.90;;;2.60;;
65853;SDS011;52627;48.838;2.402;2023-05-07T10:05:42;3.80;;;2.00;;
65853;SDS011;52627;48.838;2.402;2023-05-07T10:08:11;5.60;;;2.90;;
65853;SDS011;52627;48.838;2.402;2023-05-07T10:10:40;4.70;;;2.10;;
65853;SDS011;52627;48.838;2.402;2023-05-07T10:13:08;4.90;;;2.50;;
65853;SDS011;52627;48.838;2.402;2023-05-07T10:15:38;4.00;;;2.40;;
65853;SDS011;52627;48.838;2.402;2023-05-07T10:18:06;4.80;;;2.80;;
65853;SDS011;52627;48.838;2.402;2023-05-07T10:20:35;4.20;;;2.60;;
65853;SDS011;52627;48.838;2.402;2023-05-07T10:23:04;5.70;;;2.80;;
65853;SDS011;52627;48.838;2.402;2023-05-07T10:25:33;4.70;;;2.50;;
65853;SDS011;52627;48.838;2.402;2023-05-07T10:28:06;4.70;;;2.90;;
65853;SDS011;52627;48.838;2.402;2023-05-07T10:30:48;5.60;;;2.80;;
65853;SDS011;52627;48.838;2.402;2023-05-07T10:33:45;4.70;;;2.70;;
65853;SDS011;52627;48.838;2.402;2023-05-07T10:36:14;5.20;;;2.40;;
65853;SDS011;52627;48.838;2.402;2023-05-07T10:38:42;4.50;;;2.40;;
65853;SDS011;52627;48.838;2.402;2023-05-07T10:41:10;4.20;;;2.40;;
65853;SDS011;52627;48.838;2.402;2023-05-07T10:43:40;5.60;;;2.90;;
65853;SDS011;52627;48.838;2.402;2023-05-07T10:46:10;5.40;;;2.90;;
65853;SDS011;52627;48.838;2.402;2023-05-07T10:51:34;6.20;;;3.90;;
65853;SDS011;52627;48.838;2.402;2023-05-07T10:56:41;5.90;;;3.70;;
65853;SDS011;52627;48.838;2.402;2023-05-07T11:04:25;6.30;;;3.60;;
65853;SDS011;52627;48.838;2.402;2023-05-07T11:17:35;5.90;;;3.10;;
65853;SDS011;52627;48.838;2.402;2023-05-07T11:20:20;5.10;;;3.60;;
65853;SDS011;52627;48.838;2.402;2023-05-07T11:22:49;5.10;;;3.40;;
65853;SDS011;52627;48.838;2.402;2023-05-07T11:25:18;6.80;;;3.20;;
65853;SDS011;52627;48.838;2.402;2023-05-07T11:27:46;4.90;;;2.80;;
65853;SDS011;52627;48.838;2.402;2023-05-07T11:30:17;6.90;;;3.60;;
65853;SDS011;52627;48.838;2.402;2023-05-07T11:32:48;7.10;;;3.40;;
65853;SDS011;52627;48.838;2.402;2023-05-07T11:35:16;6.30;;;3.50;;
65853;SDS011;52627;48.838;2.402;2023-05-07T11:37:45;8.50;;;3.90;;
65853;SDS011;52627;48.838;2.402;2023-05-07T11:40:14;6.50;;;3.50;;
65853;SDS011;52627;48.838;2.402;2023-05-07T11:42:41;7.50;;;4.20;;
65853;SDS011;52627;48.838;2.402;2023-05-07T11:45:12;5.80;;;3.80;;
65853;SDS011;52627;48.838;2.402;2023-05-07T11:47:51;10.90;;;6.60;;
65853;SDS011;52627;48.838;2.402;2023-05-07T11:50:18;5.40;;;3.90;;
65853;SDS011;52627;48.838;2.402;2023-05-07T11:52:50;7.80;;;4.40;;
65853;SDS011;52627;48.838;2.402;2023-05-07T11:55:19;8.60;;;4.10;;
65853;SDS011;52627;48.838;2.402;2023-05-07T11:57:47;7.00;;;4.20;;
65853;SDS011;52627;48.838;2.402;2023-05-07T12:00:16;7.80;;;4.40;;
65853;SDS011;52627;48.838;2.402;2023-05-07T12:02:45;7.40;;;4.80;;
65853;SDS011;52627;48.838;2.402;2023-05-07T12:05:13;8.90;;;4.60;;
65853;SDS011;52627;48.838;2.402;2023-05-07T12:07:41;6.80;;;4.60;;
65853;SDS011;52627;48.838;2.402;2023-05-07T12:10:11;8.40;;;5.70;;
65853;SDS011;52627;48.838;2.402;2023-05-07T12:12:41;7.40;;;5.60;;
65853;SDS011;52627;48.838;2.402;2023-05-07T12:15:16;8.90;;;5.50;;
65853;SDS011;52627;48.838;2.402;2023-05-07T12:17:44;8.50;;;5.20;;
65853;SDS011;52627;48.838;2.402;2023-05-07T12:20:12;6.50;;;3.70;;
65853;SDS011;52627;48.838;2.402;2023-05-07T12:22:41;4.50;;;3.00;;
65853;SDS011;52627;48.838;2.402;2023-05-07T12:25:09;5.00;;;3.00;;
65853;SDS011;52627;48.838;2.402;2023-05-07T12:27:38;4.90;;;3.00;;
65853;SDS011;52627;48.838;2.402;2023-05-07T12:30:10;4.60;;;3.00;;
65853;SDS011;52627;48.838;2.402;2023-05-07T12:32:39;5.10;;;3.40;;
65853;SDS011;52627;48.838;2.402;2023-05-07T12:35:07;6.90;;;3.30;;
65853;SDS011;52627;48.838;2.402;2023-05-07T12:37:40;5.20;;;2.90;;
65853;SDS011;52627;48.838;2.402;2023-05-07T12:40:10;4.50;;;3.10;;
65853;SDS011;52627;48.838;2.402;2023-05-07T12:42:40;4.70;;;2.70;;
65853;SDS011;52627;48.838;2.402;2023-05-07T12:45:13;5.10;;;3.00;;
65853;SDS011;52627;48.838;2.402;2023-05-07T12:47:44;3.80;;;2.40;;
65853;SDS011;52627;48.838;2.402;2023-05-07T12:50:16;4.30;;;2.50;;
65853;SDS011;52627;48.838;2.402;2023-05-07T12:52:45;4.30;;;2.60;;
65853;SDS011;52627;48.838;2.402;2023-05-07T12:55:16;4.00;;;2.40;;
65853;SDS011;52627;48.838;2.402;2023-05-07T12:57:48;3.90;;;2.30;;
65853;SDS011;52627;48.838;2.402;2023-05-07T13:00:33;4.20;;;2.40;;
65853;SDS011;52627;48.838;2.402;2023-05-07T13:03:05;4.70;;;2.50;;
65853;SDS011;52627;48.838;2.402;2023-05-07T13:05:33;5.00;;;3.00;;
65853;SDS011;52627;48.838;2.402;2023-05-07T13:08:00;6.00;;;2.80;;
65853;SDS011;52627;48.838;2.402;2023-05-07T13:10:28;4.90;;;3.10;;
65853;SDS011;52627;48.838;2.402;2023-05-07T13:12:56;6.10;;;3.30;;
65853;SDS011;52627;48.838;2.402;2023-05-07T13:15:23;5.20;;;3.40;;
65853;SDS011;52627;48.838;2.402;2023-05-07T13:17:51;6.50;;;3.50;;
65853;SDS011;52627;48.838;2.402;2023-05-07T13:20:19;5.60;;;2.90;;
65853;SDS011;52627;48.838;2.402;2023-05-07T13:22:46;4.80;;;3.20;;
65853;SDS011;52627;48.838;2.402;2023-05-07T13:25:13;5.30;;;3.30;;
65853;SDS011;52627;48.838;2.402;2023-05-07T13:27:41;6.40;;;3.60;;
65853;SDS011;52627;48.838;2.402;2023-05-07T13:30:09;7.10;;;4.20;;
65853;SDS011;52627;48.838;2.402;2023-05-07T13:32:36;6.50;;;4.60;;
65853;SDS011;52627;48.838;2.402;2023-05-07T13:35:04;7.80;;;5.00;;
65853;SDS011;52627;48.838;2.402;2023-05-07T13:37:33;7.40;;;4.50;;
65853;SDS011;52627;48.838;2.402;2023-05-07T13:40:01;6.90;;;4.80;;
65853;SDS011;52627;48.838;2.402;2023-05-07T13:42:28;6.00;;;4.20;;
65853;SDS011;52627;48.838;2.402;2023-05-07T13:44:56;6.30;;;4.40;;
65853;SDS011;52627;48.838;2.402;2023-05-07T13:47:24;6.20;;;4.10;;
65853;SDS011;52627;48.838;2.402;2023-05-07T13:49:52;6.20;;;4.50;;
65853;SDS011;52627;48.838;2.402;2023-05-07T13:52:19;6.90;;;4.80;;
65853;SDS011;52627;48.838;2.402;2023-05-07T13:54:47;8.00;;;4.90;;
65853;SDS011;52627;48.838;2.402;2023-05-07T13:57:15;6.50;;;4.60;;
65853;SDS011;52627;48.838;2.402;2023-05-07T13:59:42;8.20;;;4.80;;
65853;SDS011;52627;48.838;2.402;2023-05-07T14:02:09;5.60;;;4.20;;
65853;SDS011;52627;48.838;2.402;2023-05-07T14:04:37;7.90;;;5.10;;
65853;SDS011;52627;48.838;2.402;2023-05-07T14:07:05;6.30;;;5.00;;
65853;SDS011;52627;48.838;2.402;2023-05-07T14:09:32;6.40;;;5.00;;
65853;SDS011;52627;48.838;2.402;2023-05-07T14:12:00;6.60;;;4.90;;
65853;SDS011;52627;48.838;2.402;2023-05-07T14:14:28;6.70;;;3.80;;
65853;SDS011;52627;48.838;2.402;2023-05-07T14:16:56;5.90;;;4.20;;
65853;SDS011;52627;48.838;2.402;2023-05-07T14:19:24;7.30;;;4.00;;
65853;SDS011;52627;48.838;2.402;2023-05-07T14:21:51;4.80;;;3.70;;
65853;SDS011;52627;48.838;2.402;2023-05-07T14:24:19;4.90;;;2.90;;
65853;SDS011;52627;48.838;2.402;2023-05-07T14:27:04;5.00;;;3.30;;
65853;SDS011;52627;48.838;2.402;2023-05-07T14:29:31;4.90;;;3.70;;
65853;SDS011;52627;48.838;2.402;2023-05-07T14:31:59;5.40;;;3.50;;
65853;SDS011;52627;48.838;2.402;2023-05-07T14:34:26;5.50;;;4.00;;
65853;SDS011;52627;48.838;2.402;2023-05-07T14:36:53;6.00;;;3.80;;
65853;SDS011;52627;48.838;2.402;2023-05-07T14:39:21;5.10;;;3.00;;
65853;SDS011;52627;48.838;2.402;2023-05-07T14:41:48;4.80;;;2.90;;
65853;SDS011;52627;48.838;2.402;2023-05-07T14:44:16;4.60;;;3.10;;
65853;SDS011;52627;48.838;2.402;2023-05-07T14:46:43;5.50;;;2.90;;
65853;SDS011;52627;48.838;2.402;2023-05-07T14:49:11;6.50;;;3.60;;
65853;SDS011;52627;48.838;2.402;2023-05-07T14:51:44;6.10;;;4.00;;
65853;SDS011;52627;48.838;2.402;2023-05-07T14:54:13;8.90;;;4.60;;
65853;SDS011;52627;48.838;2.402;2023-05-07T14:56:41;8.50;;;4.90;;
65853;SDS011;52627;48.838;2.402;2023-05-07T14:59:09;9.00;;;5.40;;
65853;SDS011;52627;48.838;2.402;2023-05-07T15:01:37;6.70;;;5.50;;
65853;SDS011;52627;48.838;2.402;2023-05-07T15:04:05;7.60;;;5.20;;
65853;SDS011;52627;48.838;2.402;2023-05-07T15:06:33;7.50;;;5.30;;
65853;SDS011;52627;48.838;2.402;2023-05-07T15:09:00;7.20;;;5.00;;
65853;SDS011;52627;48.838;2.402;2023-05-07T15:11:28;6.10;;;4.20;;
65853;SDS011;52627;48.838;2.402;2023-05-07T15:13:56;10.50;;;6.90;;
65853;SDS011;52627;48.838;2.402;2023-05-07T15:16:23;7.50;;;4.80;;
65853;SDS011;52627;48.838;2.402;2023-05-07T15:18:51;7.50;;;4.00;;